createdAt,value
2018-10-09T00:00:00.137Z,929.63
2018-10-09T00:01:00.323Z,929.63
2018-10-09T00:02:00.165Z,929.68
2018-10-09T00:03:00.304Z,929.68
2018-10-09T00:04:00.202Z,929.68
2018-10-09T00:05:00.329Z,929.69
2018-10-09T00:06:00.226Z,929.73
2018-10-09T00:07:00.386Z,929.69
2018-10-09T00:08:00.259Z,929.69
2018-10-09T00:09:00.273Z,929.72
2018-10-09T00:10:00.305Z,929.73
2018-10-09T00:11:00.302Z,929.76
2018-10-09T00:12:00.455Z,929.78
2018-10-09T00:13:00.453Z,929.82
2018-10-09T00:14:00.337Z,929.78
2018-10-09T00:15:00.487Z,929.79
2018-10-09T00:16:00.369Z,929.78
2018-10-09T00:17:00.542Z,929.75
2018-10-09T00:18:00.401Z,929.80
2018-10-09T00:19:00.544Z,929.80
2018-10-09T00:20:00.555Z,929.78
2018-10-09T00:21:00.571Z,929.87
2018-10-09T00:22:00.603Z,929.83
2018-10-09T00:23:00.603Z,929.91
2018-10-09T00:24:00.488Z,929.88
2018-10-09T00:25:00.507Z,929.84
2018-10-09T00:26:00.561Z,929.83
2018-10-09T00:27:00.698Z,929.86
2018-10-09T00:28:00.675Z,929.82
2018-10-09T00:29:00.565Z,929.79
2018-10-09T00:30:00.702Z,929.78
2018-10-09T00:31:00.593Z,929.81
2018-10-09T00:32:00.792Z,929.83
2018-10-09T00:33:00.639Z,929.80
2018-10-09T00:34:00.645Z,929.81
2018-10-09T00:35:00.775Z,929.81
2018-10-09T00:36:00.665Z,929.78
2018-10-09T00:37:00.690Z,929.74
2018-10-09T00:38:00.850Z,929.76
2018-10-09T00:39:00.713Z,929.72
2018-10-09T00:40:00.723Z,929.76
2018-10-09T00:41:00.749Z,929.75
2018-10-09T00:42:00.756Z,929.72
2018-10-09T00:43:00.952Z,929.72
2018-10-09T00:44:00.794Z,929.72
2018-10-09T00:45:00.816Z,929.67
2018-10-09T00:46:00.828Z,929.67
2018-10-09T00:47:00.828Z,929.65
2018-10-09T00:48:01.057Z,929.67
2018-10-09T00:49:00.902Z,929.68
2018-10-09T00:50:00.894Z,929.67
2018-10-09T00:51:01.014Z,929.66
2018-10-09T00:52:00.906Z,929.66
2018-10-09T00:53:01.089Z,929.68
2018-10-09T00:54:01.061Z,929.67
2018-10-09T00:55:00.951Z,929.68
2018-10-09T00:56:00.961Z,929.66
2018-10-09T00:57:00.981Z,929.67
2018-10-09T00:58:01.146Z,929.68
2018-10-09T00:59:01.004Z,929.66
2018-10-09T01:00:01.022Z,929.65
2018-10-09T01:01:01.053Z,929.70
2018-10-09T01:02:01.093Z,929.67
2018-10-09T01:03:01.207Z,929.65
2018-10-09T01:04:01.084Z,929.64
2018-10-09T01:05:01.101Z,929.63
2018-10-09T01:06:01.112Z,929.67
2018-10-09T01:07:01.129Z,929.69
2018-10-09T01:08:01.305Z,929.69
2018-10-09T01:09:01.177Z,929.73
2018-10-09T01:10:01.186Z,929.76
2018-10-09T01:11:01.190Z,929.74
2018-10-09T01:12:01.205Z,929.76
2018-10-09T01:13:01.370Z,929.75
2018-10-09T01:14:01.276Z,929.76
2018-10-09T01:15:01.244Z,929.80
2018-10-09T01:16:01.287Z,929.79
2018-10-09T01:17:01.406Z,929.77
2018-10-09T01:18:01.567Z,929.82
2018-10-09T01:19:01.307Z,929.80
2018-10-09T01:20:01.446Z,929.80
2018-10-09T01:21:01.329Z,929.85
2018-10-09T01:22:01.352Z,929.84
2018-10-09T01:23:01.408Z,929.76
2018-10-09T01:24:01.396Z,929.82
2018-10-09T01:25:01.522Z,929.83
2018-10-09T01:26:01.537Z,929.82
2018-10-09T01:27:01.571Z,929.84
2018-10-09T01:28:01.480Z,929.86
2018-10-09T01:29:01.457Z,929.85
2018-10-09T01:30:01.476Z,929.81
2018-10-09T01:31:01.500Z,929.83
2018-10-09T01:32:01.598Z,929.82
2018-10-09T01:33:01.505Z,929.81
2018-10-09T01:34:01.656Z,929.81
2018-10-09T01:35:01.669Z,929.82
2018-10-09T01:36:01.689Z,929.82
2018-10-09T01:37:01.677Z,929.84
2018-10-09T01:38:01.720Z,929.84
2018-10-09T01:39:01.733Z,929.85
2018-10-09T01:40:01.752Z,929.82
2018-10-09T01:41:01.756Z,929.87
2018-10-09T01:42:01.926Z,929.88
2018-10-09T01:43:01.673Z,929.87
2018-10-09T01:44:01.808Z,929.94
2018-10-09T01:45:01.688Z,929.99
2018-10-09T01:46:01.709Z,930.00
2018-10-09T01:47:01.872Z,930.03
2018-10-09T01:48:01.863Z,930.03
2018-10-09T01:49:01.741Z,930.04
2018-10-09T01:50:01.776Z,930.03
2018-10-09T01:51:01.794Z,929.99
2018-10-09T01:52:01.843Z,929.96
2018-10-09T01:53:01.940Z,929.93
2018-10-09T01:54:01.828Z,929.96
2018-10-09T01:55:01.972Z,929.93
2018-10-09T01:56:01.865Z,929.90
2018-10-09T01:57:02.144Z,929.92
2018-10-09T01:58:01.903Z,929.90
2018-10-09T01:59:01.901Z,929.89
2018-10-09T02:00:01.920Z,929.92
2018-10-09T02:01:01.942Z,929.88
2018-10-09T02:02:02.048Z,929.87
2018-10-09T02:03:02.121Z,929.93
2018-10-09T02:04:01.988Z,929.89
2018-10-09T02:05:02.010Z,929.94
2018-10-09T02:06:02.012Z,929.91
2018-10-09T02:07:02.297Z,929.96
2018-10-09T02:08:02.025Z,929.97
2018-10-09T02:09:02.177Z,929.97
2018-10-09T02:10:02.058Z,929.99
2018-10-09T02:11:02.080Z,929.96
2018-10-09T02:12:02.256Z,929.97
2018-10-09T02:13:02.232Z,929.94
2018-10-09T02:14:02.245Z,929.93
2018-10-09T02:15:02.135Z,929.96
2018-10-09T02:16:02.200Z,929.97
2018-10-09T02:17:02.282Z,929.94
2018-10-09T02:18:02.225Z,929.96
2018-10-09T02:19:02.210Z,929.97
2018-10-09T02:20:02.213Z,929.97
2018-10-09T02:21:02.349Z,929.98
2018-10-09T02:22:02.464Z,929.95
2018-10-09T02:23:02.258Z,929.90
2018-10-09T02:24:02.266Z,929.90
2018-10-09T02:25:02.280Z,929.86
2018-10-09T02:26:02.288Z,929.88
2018-10-09T02:27:02.463Z,929.86
2018-10-09T02:28:02.320Z,929.81
2018-10-09T02:29:02.470Z,929.86
2018-10-09T02:30:02.382Z,929.85
2018-10-09T02:31:02.384Z,929.80
2018-10-09T02:32:02.496Z,929.79
2018-10-09T02:33:02.522Z,929.76
2018-10-09T02:34:02.421Z,929.82
2018-10-09T02:35:02.485Z,929.80
2018-10-09T02:36:02.581Z,929.77
2018-10-09T02:37:02.733Z,929.80
2018-10-09T02:38:02.464Z,929.76
2018-10-09T02:39:02.473Z,929.77
2018-10-09T02:40:02.635Z,929.73
2018-10-09T02:41:02.522Z,929.69
2018-10-09T02:42:02.688Z,929.72
2018-10-09T02:43:02.543Z,929.67
2018-10-09T02:44:02.570Z,929.67
2018-10-09T02:45:02.566Z,929.67
2018-10-09T02:46:02.711Z,929.71
2018-10-09T02:47:02.742Z,929.68
2018-10-09T02:48:02.623Z,929.70
2018-10-09T02:49:02.754Z,929.65
2018-10-09T02:50:02.639Z,929.64
2018-10-09T02:51:02.658Z,929.64
2018-10-09T02:52:02.816Z,929.61
2018-10-09T02:53:02.693Z,929.58
2018-10-09T02:54:02.699Z,929.56
2018-10-09T02:55:02.723Z,929.58
2018-10-09T02:56:02.720Z,929.54
2018-10-09T02:57:03.010Z,929.54
2018-10-09T02:58:02.803Z,929.48
2018-10-09T02:59:02.888Z,929.47
2018-10-09T03:00:02.905Z,929.44
2018-10-09T03:01:02.787Z,929.35
2018-10-09T03:02:02.808Z,929.38
2018-10-09T03:03:02.969Z,929.34
2018-10-09T03:04:02.854Z,929.35
2018-10-09T03:05:02.992Z,929.32
2018-10-09T03:06:02.858Z,929.30
2018-10-09T03:07:02.881Z,929.28
2018-10-09T03:08:03.068Z,929.26
2018-10-09T03:09:02.916Z,929.26
2018-10-09T03:10:02.922Z,929.22
2018-10-09T03:11:02.932Z,929.18
2018-10-09T03:12:03.076Z,929.15
2018-10-09T03:19:03.171Z,929.01
2018-10-09T03:20:03.058Z,929.00
2018-10-09T03:21:03.084Z,928.98
2018-10-09T03:22:03.104Z,928.96
2018-10-09T03:23:03.153Z,928.92
2018-10-09T03:24:03.271Z,928.88
2018-10-09T03:25:03.141Z,928.87
2018-10-09T03:26:03.269Z,928.85
2018-10-09T03:27:03.160Z,928.83
2018-10-09T03:28:03.178Z,928.78
2018-10-09T03:29:03.288Z,928.73
2018-10-09T03:30:03.198Z,928.76
2018-10-09T03:31:03.212Z,928.74
2018-10-09T03:32:03.233Z,928.73
2018-10-09T03:33:03.248Z,928.72
2018-10-09T03:34:03.356Z,928.66
2018-10-09T03:35:03.260Z,928.65
2018-10-09T03:36:03.301Z,928.61
2018-10-09T03:37:03.425Z,928.59
2018-10-09T03:38:03.304Z,928.59
2018-10-09T03:39:03.483Z,928.55
2018-10-09T03:40:03.344Z,928.53
2018-10-09T03:41:03.350Z,928.51
2018-10-09T03:42:03.372Z,928.49
2018-10-09T03:43:03.511Z,928.44
2018-10-09T03:44:03.476Z,928.45
2018-10-09T03:48:03.458Z,928.40
2018-10-09T03:49:03.492Z,928.37
2018-10-09T03:50:03.490Z,928.36
2018-10-09T03:51:03.668Z,928.37
2018-10-09T03:52:03.572Z,928.32
2018-10-09T03:53:03.530Z,928.31
2018-10-09T03:54:03.561Z,928.33
2018-10-09T03:55:03.558Z,928.29
2018-10-09T03:56:03.776Z,928.32
2018-10-09T03:57:03.596Z,928.35
2018-10-09T03:58:03.589Z,928.35
2018-10-09T03:59:03.613Z,928.40
2018-10-09T04:00:03.631Z,928.39
2018-10-09T04:01:03.806Z,928.41
2018-10-09T04:02:03.666Z,928.47
2018-10-09T04:03:03.683Z,928.47
2018-10-09T04:04:03.681Z,928.44
2018-10-09T04:05:03.691Z,928.40
2018-10-09T04:06:03.818Z,928.39
2018-10-09T04:07:03.731Z,928.41
2018-10-09T04:08:03.768Z,928.45
2018-10-09T04:09:03.786Z,928.42
2018-10-09T04:10:03.766Z,928.39
2018-10-09T04:11:03.948Z,928.32
2018-10-09T04:12:03.809Z,928.30
2018-10-09T04:13:03.833Z,928.26
2018-10-09T04:14:03.853Z,928.26
2018-10-09T04:15:03.854Z,928.24
2018-10-09T04:16:03.918Z,928.22
2018-10-09T04:17:03.886Z,928.21
2018-10-09T04:18:03.884Z,928.18
2018-10-09T04:19:03.898Z,928.19
2018-10-09T04:20:03.909Z,928.20
2018-10-09T04:21:03.981Z,928.19
2018-10-09T04:22:03.965Z,928.19
2018-10-09T04:23:03.963Z,928.18
2018-10-09T04:24:03.999Z,928.08
2018-10-09T04:25:03.987Z,928.06
2018-10-09T04:26:04.148Z,928.00
2018-10-09T04:27:04.019Z,927.97
2018-10-09T04:28:04.030Z,928.02
2018-10-09T04:29:04.032Z,928.03
2018-10-09T04:30:04.055Z,928.02
2018-10-09T04:31:04.228Z,927.99
2018-10-09T04:32:04.083Z,928.00
2018-10-09T04:33:04.100Z,928.03
2018-10-09T04:36:04.240Z,927.93
2018-10-09T04:37:04.152Z,927.98
2018-10-09T04:38:04.178Z,927.97
2018-10-09T04:39:04.183Z,927.92
2018-10-09T04:40:04.198Z,927.87
2018-10-09T04:41:04.377Z,927.88
2018-10-09T04:42:04.224Z,927.92
2018-10-09T04:43:04.228Z,927.99
2018-10-09T04:44:04.247Z,928.01
2018-10-09T04:45:04.278Z,928.02
2018-10-09T04:46:04.420Z,928.09
2018-10-09T04:47:04.288Z,928.20
2018-10-09T04:48:04.327Z,928.25
2018-10-09T04:49:04.329Z,928.31
2018-10-09T04:50:04.335Z,928.36
2018-10-09T04:51:04.463Z,928.35
2018-10-09T04:52:04.349Z,928.36
2018-10-09T04:53:04.418Z,928.31
2018-10-09T04:54:04.403Z,928.33
2018-10-09T04:55:04.406Z,928.24
2018-10-09T04:56:04.608Z,928.23
2018-10-09T04:57:04.453Z,928.22
2018-10-09T04:58:04.501Z,928.20
2018-10-09T04:59:04.472Z,928.18
2018-10-09T05:00:04.479Z,928.15
2018-10-09T05:01:04.645Z,928.06
2018-10-09T05:02:04.526Z,928.03
2018-10-09T05:03:04.543Z,927.97
2018-10-09T05:04:04.522Z,927.91
2018-10-09T05:05:04.529Z,927.84
2018-10-09T05:06:04.601Z,927.84
2018-10-09T05:07:04.587Z,927.81
2018-10-09T05:08:04.591Z,927.80
2018-10-09T05:09:04.770Z,927.76
2018-10-09T05:12:04.639Z,927.71
2018-10-09T05:18:04.715Z,927.66
2018-10-09T05:19:04.729Z,927.63
2018-10-09T05:20:04.743Z,927.56
2018-10-09T05:21:04.785Z,927.57
2018-10-09T05:22:04.789Z,927.51
2018-10-09T05:23:04.921Z,927.50
2018-10-09T05:24:04.801Z,927.51
2018-10-09T05:25:04.824Z,927.49
2018-10-09T05:26:04.830Z,927.43
2018-10-09T05:27:04.842Z,927.39
2018-10-09T05:28:05.001Z,927.36
2018-10-09T05:29:04.894Z,927.34
2018-10-09T05:30:04.891Z,927.33
2018-10-09T05:31:04.917Z,927.29
2018-10-09T05:32:04.906Z,927.26
2018-10-09T05:33:04.983Z,927.28
2018-10-09T05:34:04.960Z,927.24
2018-10-09T05:35:04.970Z,927.22
2018-10-09T05:36:04.984Z,927.17
2018-10-09T05:37:05.101Z,927.24
2018-10-09T05:38:05.016Z,927.21
2018-10-09T05:39:05.037Z,927.23
2018-10-09T05:40:05.042Z,927.17
2018-10-09T05:41:05.046Z,927.19
2018-10-09T05:42:05.102Z,927.20
2018-10-09T05:43:05.084Z,927.17
2018-10-09T05:44:05.269Z,927.19
2018-10-09T05:45:05.104Z,927.20
2018-10-09T05:46:05.111Z,927.19
2018-10-09T05:47:05.120Z,927.21
2018-10-09T05:48:05.141Z,927.24
2018-10-09T05:49:05.327Z,927.27
2018-10-09T05:50:05.193Z,927.26
2018-10-09T05:51:05.194Z,927.26
2018-10-09T05:52:05.203Z,927.26
2018-10-09T05:53:05.216Z,927.26
2018-10-09T05:54:05.385Z,927.22
2018-10-09T05:55:05.236Z,927.27
2018-10-09T05:56:05.260Z,927.27
2018-10-09T05:57:05.283Z,927.33
2018-10-09T05:58:05.483Z,927.32
2018-10-09T05:59:05.459Z,927.32
2018-10-09T06:00:05.303Z,927.37
2018-10-09T06:01:05.330Z,927.41
2018-10-09T06:02:05.380Z,927.43
2018-10-09T06:03:05.356Z,927.49
2018-10-09T06:04:05.510Z,927.51
2018-10-09T06:05:05.380Z,927.50
2018-10-09T06:06:05.493Z,927.50
2018-10-09T06:07:05.406Z,927.51
2018-10-09T06:08:05.415Z,927.48
2018-10-09T06:09:05.602Z,927.48
2018-10-09T06:10:05.452Z,927.42
2018-10-09T06:11:05.465Z,927.46
2018-10-09T06:12:05.475Z,927.47
2018-10-09T06:13:05.486Z,927.40
2018-10-09T06:14:05.613Z,927.37
2018-10-09T06:15:05.536Z,927.35
2018-10-09T06:16:05.603Z,927.34
2018-10-09T06:17:05.571Z,927.29
2018-10-09T06:18:05.556Z,927.29
2018-10-09T06:19:05.774Z,927.31
2018-10-09T06:20:05.605Z,927.34
2018-10-09T06:21:05.613Z,927.34
2018-10-09T06:22:05.667Z,927.33
2018-10-09T06:23:05.641Z,927.32
2018-10-09T06:24:05.709Z,927.31
2018-10-09T06:25:05.677Z,927.30
2018-10-09T06:26:05.819Z,927.18
2018-10-09T06:27:05.690Z,927.15
2018-10-09T06:28:05.800Z,927.12
2018-10-09T06:29:05.707Z,927.08
2018-10-09T06:30:05.720Z,927.08
2018-10-09T06:31:05.899Z,927.03
2018-10-09T06:32:05.745Z,926.98
2018-10-09T06:33:05.794Z,926.97
2018-10-09T06:34:05.897Z,926.95
2018-10-09T06:35:05.813Z,926.95
2018-10-09T06:36:05.867Z,926.95
2018-10-09T06:37:05.825Z,926.94
2018-10-09T06:38:05.849Z,926.89
2018-10-09T06:39:06.007Z,926.88
2018-10-09T06:40:05.910Z,926.82
2018-10-09T06:41:05.893Z,926.83
2018-10-09T06:42:05.889Z,926.79
2018-10-09T06:44:05.974Z,926.82
2018-10-09T06:47:05.981Z,926.85
2018-10-09T06:51:06.088Z,926.88
2018-10-09T06:52:06.038Z,926.91
2018-10-09T06:53:06.165Z,926.90
2018-10-09T06:54:06.258Z,926.95
2018-10-09T06:55:06.072Z,926.92
2018-10-09T06:56:06.125Z,926.93
2018-10-09T06:57:06.107Z,926.97
2018-10-09T06:58:06.174Z,927.00
2018-10-09T06:59:06.333Z,927.02
2018-10-09T07:00:06.162Z,927.08
2018-10-09T07:01:06.180Z,927.14
2018-10-09T07:02:06.170Z,927.18
2018-10-09T07:03:06.207Z,927.25
2018-10-09T07:04:06.318Z,927.32
2018-10-09T07:05:06.220Z,927.39
2018-10-09T07:06:06.241Z,927.42
2018-10-09T07:07:06.257Z,927.42
2018-10-09T07:08:06.313Z,927.43
2018-10-09T07:09:06.447Z,927.48
2018-10-09T07:10:06.282Z,927.46
2018-10-09T07:11:06.374Z,927.44
2018-10-09T07:12:06.330Z,927.45
2018-10-09T07:13:06.331Z,927.45
2018-10-09T07:14:06.436Z,927.42
2018-10-09T07:15:06.390Z,927.41
2018-10-09T07:16:06.364Z,927.39
2018-10-09T07:17:06.567Z,927.41
2018-10-09T07:18:06.419Z,927.40
2018-10-09T07:19:06.439Z,927.44
2018-10-09T07:20:06.429Z,927.46
2018-10-09T07:21:06.451Z,927.49
2018-10-09T07:22:06.561Z,927.50
2018-10-09T07:23:06.477Z,927.51
2018-10-09T07:24:06.485Z,927.52
2018-10-09T07:27:06.594Z,927.51
2018-10-09T07:34:06.778Z,927.55
2018-10-09T07:36:06.681Z,927.59
2018-10-09T07:37:06.686Z,927.64
2018-10-09T07:38:06.699Z,927.64
2018-10-09T07:39:06.858Z,927.70
2018-10-09T07:40:06.720Z,927.67
2018-10-09T07:41:06.752Z,927.68
2018-10-09T07:42:06.753Z,927.70
2018-10-09T07:43:06.763Z,927.71
2018-10-09T07:44:07.059Z,927.70
2018-10-09T07:45:06.788Z,927.68
2018-10-09T07:46:06.810Z,927.70
2018-10-09T07:47:06.820Z,927.68
2018-10-09T07:48:06.838Z,927.71
2018-10-09T07:49:06.888Z,927.67
2018-10-09T07:50:06.897Z,927.64
2018-10-09T07:51:06.919Z,927.59
2018-10-09T07:52:06.890Z,927.61
2018-10-09T07:53:06.907Z,927.61
2018-10-09T07:54:07.045Z,927.63
2018-10-09T07:55:06.956Z,927.63
2018-10-09T07:56:06.950Z,927.63
2018-10-09T07:57:06.963Z,927.63
2018-10-09T07:58:06.981Z,927.64
2018-10-09T07:59:06.983Z,927.66
2018-10-09T08:00:07.104Z,927.68
2018-10-09T08:01:07.010Z,927.69
2018-10-09T08:02:07.024Z,927.80
2018-10-09T08:03:07.052Z,927.83
2018-10-09T08:04:07.061Z,927.84
2018-10-09T08:05:07.217Z,927.88
2018-10-09T08:06:07.066Z,927.89
2018-10-09T08:07:07.124Z,927.94
2018-10-09T08:08:07.120Z,928.01
2018-10-09T08:09:07.121Z,928.07
2018-10-09T08:10:07.184Z,928.10
2018-10-09T08:16:07.241Z,928.04
2018-10-09T08:17:07.441Z,927.93
2018-10-09T08:18:07.263Z,927.88
2018-10-09T08:22:07.462Z,927.93
2018-10-09T08:23:07.329Z,927.92
2018-10-09T08:24:07.323Z,927.87
2018-10-09T08:25:07.343Z,927.86
2018-10-09T08:26:07.374Z,927.90
2018-10-09T08:27:07.521Z,927.91
2018-10-09T08:28:07.541Z,927.87
2018-10-09T08:29:07.422Z,927.93
2018-10-09T08:30:07.436Z,927.96
2018-10-09T08:31:07.454Z,928.00
2018-10-09T08:32:07.519Z,927.99
2018-10-09T08:33:07.462Z,928.00
2018-10-09T08:34:07.621Z,928.01
2018-10-09T08:35:07.493Z,928.04
2018-10-09T08:36:07.492Z,928.05
2018-10-09T08:37:07.508Z,928.04
2018-10-09T08:38:07.532Z,927.99
2018-10-09T08:39:07.639Z,928.02
2018-10-09T08:40:07.591Z,928.04
2018-10-09T08:41:07.614Z,928.03
2018-10-09T08:42:07.588Z,928.05
2018-10-09T08:43:07.614Z,928.03
2018-10-09T08:44:07.721Z,928.04
2018-10-09T08:45:07.620Z,928.04
2018-10-09T08:46:07.719Z,928.00
2018-10-09T08:47:07.663Z,928.02
2018-10-09T08:48:07.665Z,927.99
2018-10-09T08:49:07.808Z,927.98
2018-10-09T08:50:07.742Z,927.99
2018-10-09T08:51:07.720Z,927.93
2018-10-09T08:52:07.819Z,927.94
2018-10-09T08:53:07.745Z,927.87
2018-10-09T08:54:07.912Z,927.91
2018-10-09T08:55:07.764Z,927.96
2018-10-09T08:56:07.780Z,928.02
2018-10-09T08:57:07.787Z,928.02
2018-10-09T08:58:07.804Z,928.05
2018-10-09T08:59:07.979Z,928.08
2018-10-09T09:00:07.847Z,928.05
2018-10-09T09:01:07.862Z,928.03
2018-10-09T09:02:07.846Z,928.06
2018-10-09T09:03:07.921Z,928.12
2018-10-09T09:04:08.030Z,928.13
2018-10-09T09:05:07.909Z,928.11
2018-10-09T09:06:07.921Z,928.13
2018-10-09T09:07:07.923Z,928.10
2018-10-09T09:08:07.958Z,928.10
2018-10-09T09:09:08.117Z,928.09
2018-10-09T09:10:07.966Z,928.14
2018-10-09T09:11:08.001Z,928.13
2018-10-09T09:12:08.014Z,928.12
2018-10-09T09:13:08.030Z,928.08
2018-10-09T09:14:08.226Z,928.04
2018-10-09T09:15:08.106Z,928.08
2018-10-09T09:16:08.051Z,928.03
2018-10-09T09:17:08.076Z,928.04
2018-10-09T09:18:08.093Z,928.03
2018-10-09T09:19:08.208Z,928.04
2018-10-09T09:20:08.129Z,928.02
2018-10-09T09:21:08.163Z,928.00
2018-10-09T09:22:08.142Z,927.98
2018-10-09T09:23:08.163Z,928.00
2018-10-09T09:24:08.272Z,927.97
2018-10-09T09:25:08.225Z,927.94
2018-10-09T09:26:08.246Z,927.88
2018-10-09T09:27:08.381Z,927.88
2018-10-09T09:28:08.241Z,927.88
2018-10-09T09:29:08.338Z,927.82
2018-10-09T09:30:08.265Z,927.80
2018-10-09T09:31:08.272Z,927.80
2018-10-09T09:32:08.282Z,927.83
2018-10-09T09:33:08.409Z,927.82
2018-10-09T09:34:08.320Z,927.84
2018-10-09T09:35:08.316Z,927.85
2018-10-09T09:36:08.350Z,927.87
2018-10-09T09:37:08.370Z,927.86
2018-10-09T09:38:08.484Z,927.89
2018-10-09T09:39:08.497Z,927.91
2018-10-09T09:40:08.400Z,927.93
2018-10-09T09:41:08.434Z,927.99
2018-10-09T09:42:08.453Z,927.97
2018-10-09T09:43:08.499Z,928.01
2018-10-09T09:44:08.457Z,927.99
2018-10-09T09:45:08.631Z,928.01
2018-10-09T09:46:08.556Z,928.05
2018-10-09T09:47:08.491Z,928.08
2018-10-09T09:48:08.524Z,928.10
2018-10-09T09:49:08.553Z,928.14
2018-10-09T09:50:08.664Z,928.15
2018-10-09T09:51:08.560Z,928.21
2018-10-09T09:52:08.664Z,928.23
2018-10-09T09:53:08.596Z,928.24
2018-10-09T09:54:08.620Z,928.18
2018-10-09T09:55:08.623Z,928.27
2018-10-09T09:56:08.746Z,928.30
2018-10-09T09:57:08.652Z,928.33
2018-10-09T09:58:08.904Z,928.34
2018-10-09T09:59:08.868Z,928.36
2018-10-09T10:00:08.744Z,928.39
2018-10-09T10:01:08.823Z,928.32
2018-10-09T10:02:08.725Z,928.38
2018-10-09T10:03:08.752Z,928.38
2018-10-09T10:04:08.775Z,928.40
2018-10-09T10:05:08.786Z,928.46
2018-10-09T10:06:08.897Z,928.45
2018-10-09T10:07:08.796Z,928.45
2018-10-09T10:08:08.830Z,928.49
2018-10-09T10:09:08.844Z,928.56
2018-10-09T10:10:08.858Z,928.57
2018-10-09T10:11:09.012Z,928.57
2018-10-09T10:12:08.880Z,928.61
2018-10-09T10:13:08.900Z,928.61
2018-10-09T10:14:08.944Z,928.64
2018-10-09T10:15:08.947Z,928.65
2018-10-09T10:16:09.071Z,928.68
2018-10-09T10:17:08.977Z,928.66
2018-10-09T10:18:08.986Z,928.70
2018-10-09T10:19:09.009Z,928.69
2018-10-09T10:20:09.004Z,928.73
2018-10-09T10:21:09.166Z,928.76
2018-10-09T10:22:09.043Z,928.80
2018-10-09T10:23:09.101Z,928.80
2018-10-09T10:24:09.082Z,928.82
2018-10-09T10:25:09.100Z,928.83
2018-10-09T10:26:09.096Z,928.87
2018-10-09T10:27:09.127Z,928.86
2018-10-09T10:28:09.183Z,928.91
2018-10-09T10:29:13.435Z,928.87
2018-10-09T10:30:09.174Z,928.88
2018-10-09T10:31:09.180Z,928.88
2018-10-09T10:32:09.262Z,928.89
2018-10-09T10:33:09.237Z,928.87
2018-10-09T10:34:09.378Z,928.87
2018-10-09T10:35:09.264Z,928.88
2018-10-09T10:36:09.273Z,928.90
2018-10-09T10:37:09.297Z,928.88
2018-10-09T10:38:09.304Z,928.94
2018-10-09T10:39:09.425Z,928.97
2018-10-09T10:40:09.339Z,928.97
2018-10-09T10:41:09.336Z,929.00
2018-10-09T10:42:09.423Z,928.99
2018-10-09T10:43:09.416Z,929.01
2018-10-09T10:44:09.426Z,929.03
2018-10-09T10:45:09.419Z,929.01
2018-10-09T10:46:09.421Z,929.05
2018-10-09T10:47:09.447Z,929.06
2018-10-09T10:48:09.464Z,929.09
2018-10-09T10:49:09.643Z,929.12
2018-10-09T10:50:09.471Z,929.07
2018-10-09T10:51:09.511Z,929.07
2018-10-09T10:52:09.571Z,929.08
2018-10-09T10:53:09.539Z,929.07
2018-10-09T10:54:09.617Z,929.11
2018-10-09T10:55:09.547Z,929.13
2018-10-09T10:56:09.614Z,929.14
2018-10-09T10:57:09.577Z,929.11
2018-10-09T10:58:09.605Z,929.14
2018-10-09T10:59:09.720Z,929.12
2018-10-09T11:00:09.640Z,929.15
2018-10-09T11:01:09.711Z,929.15
2018-10-09T11:02:09.675Z,929.22
2018-10-09T11:03:09.690Z,929.24
2018-10-09T11:04:09.839Z,929.21
2018-10-09T11:05:09.721Z,929.23
2018-10-09T11:06:09.725Z,929.22
2018-10-09T11:07:09.767Z,929.25
2018-10-09T11:08:09.832Z,929.25
2018-10-09T11:09:09.919Z,929.23
2018-10-09T11:10:09.812Z,929.25
2018-10-09T11:11:09.829Z,929.20
2018-10-09T11:12:09.829Z,929.26
2018-10-09T11:13:09.864Z,929.32
2018-10-09T11:14:09.954Z,929.25
2018-10-09T11:15:09.891Z,929.23
2018-10-09T11:16:09.883Z,929.28
2018-10-09T11:17:09.968Z,929.32
2018-10-09T11:18:09.954Z,929.34
2018-10-09T11:19:10.064Z,929.30
2018-10-09T11:20:09.968Z,929.36
2018-10-09T11:21:10.111Z,929.26
2018-10-09T11:22:10.006Z,929.29
2018-10-09T11:23:10.016Z,929.31
2018-10-09T11:24:10.091Z,929.28
2018-10-09T11:25:10.056Z,929.29
2018-10-09T11:26:10.080Z,929.32
2018-10-09T11:27:10.100Z,929.30
2018-10-09T11:28:10.113Z,929.31
2018-10-09T11:29:10.228Z,929.29
2018-10-09T11:30:10.159Z,929.27
2018-10-09T11:31:10.169Z,929.27
2018-10-09T11:32:10.190Z,929.25
2018-10-09T11:33:10.210Z,929.22
2018-10-09T11:34:10.351Z,929.23
2018-10-09T11:35:10.267Z,929.27
2018-10-09T11:36:10.264Z,929.28
2018-10-09T11:37:10.273Z,929.32
2018-10-09T11:38:10.317Z,929.26
2018-10-09T11:39:10.378Z,929.27
2018-10-09T11:40:10.333Z,929.27
2018-10-09T11:41:10.352Z,929.28
2018-10-09T11:42:10.378Z,929.27
2018-10-09T11:43:10.443Z,929.32
2018-10-09T11:44:10.397Z,929.30
2018-10-09T11:45:10.445Z,929.27
2018-10-09T11:46:10.429Z,929.22
2018-10-09T11:47:10.467Z,929.21
2018-10-09T11:48:10.579Z,929.20
2018-10-09T11:49:10.489Z,929.29
2018-10-09T11:50:10.503Z,929.17
2018-10-09T11:51:10.556Z,929.28
2018-10-09T11:52:10.572Z,929.29
2018-10-09T11:53:10.685Z,929.26
2018-10-09T11:54:10.592Z,929.34
2018-10-09T11:55:10.615Z,929.35
2018-10-09T11:56:10.628Z,929.36
2018-10-09T11:57:10.644Z,929.31
2018-10-09T11:58:10.762Z,929.37
2018-10-09T11:59:10.776Z,929.76
2018-10-09T12:00:10.720Z,929.48
2018-10-09T12:01:10.733Z,929.88
2018-10-09T12:02:10.761Z,929.50
2018-10-09T12:03:10.887Z,929.61
2018-10-09T12:04:10.790Z,929.50
2018-10-09T12:05:10.825Z,929.51
2018-10-09T12:06:10.822Z,929.55
2018-10-09T12:07:10.832Z,929.55
2018-10-09T12:08:11.002Z,929.52
2018-10-09T12:09:10.888Z,929.46
2018-10-09T12:10:10.908Z,930.18
2018-10-09T12:11:10.919Z,929.41
2018-10-09T12:12:10.953Z,929.81
2018-10-09T12:13:11.090Z,929.71
2018-10-09T12:14:11.014Z,929.41
2018-10-09T12:15:11.032Z,929.57
2018-10-09T12:16:11.055Z,929.62
2018-10-09T12:17:11.058Z,929.80
2018-10-09T12:18:11.280Z,930.32
2018-10-09T12:19:11.107Z,931.30
2018-10-09T12:20:11.144Z,929.93
2018-10-09T12:21:11.153Z,929.57
2018-10-09T12:22:11.170Z,929.44
2018-10-09T12:23:11.290Z,930.63
2018-10-09T12:24:11.235Z,930.01
2018-10-09T12:25:11.241Z,929.37
2018-10-09T12:26:11.275Z,930.31
2018-10-09T12:27:11.379Z,930.59
2018-10-09T12:28:11.364Z,930.06
2018-10-09T12:29:11.347Z,929.53
2018-10-09T12:30:11.358Z,930.50
2018-10-09T12:31:11.478Z,929.55
2018-10-09T12:32:11.405Z,929.54
2018-10-09T12:33:11.422Z,929.49
2018-10-09T12:34:11.459Z,929.37
2018-10-09T12:35:11.466Z,929.72
2018-10-09T12:36:11.708Z,930.02
2018-10-09T12:37:11.520Z,929.76
2018-10-09T12:38:11.549Z,929.41
2018-10-09T12:39:11.611Z,929.71
2018-10-09T12:40:11.585Z,929.74
2018-10-09T12:41:11.727Z,929.51
2018-10-09T12:42:11.625Z,931.59
2018-10-09T12:43:11.675Z,931.05
2018-10-09T12:44:11.699Z,929.80
2018-10-09T12:45:11.709Z,929.59
2018-10-09T12:46:11.825Z,930.62
2018-10-09T12:47:11.744Z,930.07
2018-10-09T12:48:11.773Z,929.91
2018-10-09T12:49:11.780Z,930.15
2018-10-09T12:50:11.822Z,929.43
2018-10-09T12:51:11.927Z,929.52
2018-10-09T12:52:11.898Z,929.62
2018-10-09T12:53:11.900Z,929.49
2018-10-09T12:54:11.924Z,929.33
2018-10-09T12:55:11.935Z,929.40
2018-10-09T12:56:12.074Z,929.46
2018-10-09T12:57:12.066Z,929.36
2018-10-09T12:58:12.051Z,932.01
2018-10-09T12:59:12.055Z,929.41
2018-10-09T13:00:12.065Z,929.37
2018-10-09T13:01:12.116Z,929.27
2018-10-09T13:02:12.088Z,929.28
2018-10-09T13:03:12.210Z,929.73
2018-10-09T13:04:12.135Z,929.29
2018-10-09T13:05:12.275Z,929.30
2018-10-09T13:06:12.180Z,929.20
2018-10-09T13:07:12.203Z,929.22
2018-10-09T13:08:12.283Z,929.42
2018-10-09T13:09:12.252Z,929.39